createdAt,value
2017-07-08T00:00:41.935Z,0
2017-07-08T00:01:43.805Z,0
2017-07-08T00:02:45.641Z,0
2017-07-08T00:03:47.472Z,0
2017-07-08T00:04:49.367Z,0
2017-07-08T00:05:51.240Z,0
2017-07-08T00:06:53.113Z,0
2017-07-08T00:08:07.301Z,0
2017-07-08T00:09:09.132Z,0
2017-07-08T00:10:11.001Z,0
2017-07-08T00:11:12.898Z,0
2017-07-08T00:12:14.734Z,0
2017-07-08T00:13:16.566Z,0
2017-07-08T00:14:18.445Z,0
2017-07-08T00:15:20.340Z,0
2017-07-08T00:16:22.215Z,0
2017-07-08T00:17:36.431Z,0
2017-07-08T00:18:38.333Z,0
2017-07-08T00:19:40.230Z,0
2017-07-08T00:20:42.128Z,0
2017-07-08T00:21:43.959Z,0
2017-07-08T00:22:45.806Z,0
2017-07-08T00:23:47.671Z,0
2017-07-08T00:24:49.538Z,0
2017-07-08T00:25:51.409Z,0
2017-07-08T00:27:05.561Z,0
2017-07-08T00:28:07.450Z,0
2017-07-08T00:29:09.325Z,0
2017-07-08T00:30:11.202Z,0
2017-07-08T00:31:13.023Z,0
2017-07-08T00:32:14.831Z,0
2017-07-08T00:33:16.703Z,0
2017-07-08T00:34:18.580Z,0
2017-07-08T00:35:20.472Z,0
2017-07-08T00:36:34.617Z,0
2017-07-08T00:37:36.515Z,0
2017-07-08T00:38:38.417Z,0
2017-07-08T00:39:40.314Z,0
2017-07-08T00:40:42.121Z,0
2017-07-08T00:41:43.958Z,0
2017-07-08T00:42:45.851Z,0
2017-07-08T00:43:47.728Z,0
2017-07-08T00:44:49.624Z,0
2017-07-08T00:46:03.790Z,0
2017-07-08T00:47:05.664Z,0
2017-07-08T00:48:07.531Z,0
2017-07-08T00:49:09.418Z,0
2017-07-08T00:50:11.227Z,0
2017-07-08T00:51:13.060Z,0
2017-07-08T00:52:14.961Z,0
2017-07-08T00:53:16.858Z,0
2017-07-08T00:54:18.751Z,0
2017-07-08T00:55:32.919Z,0
2017-07-08T00:56:34.820Z,0
2017-07-08T00:57:36.694Z,0
2017-07-08T00:58:38.564Z,0
2017-07-08T00:59:40.368Z,0
2017-07-08T01:00:42.175Z,0
2017-07-08T01:01:44.045Z,0
2017-07-08T01:02:45.920Z,0
2017-07-08T01:03:47.819Z,0
2017-07-08T01:05:01.983Z,0
2017-07-08T01:06:03.882Z,0
2017-07-08T01:07:05.757Z,0
2017-07-08T01:08:07.636Z,0
2017-07-08T01:09:09.470Z,0
2017-07-08T01:10:11.300Z,0
2017-07-08T01:11:13.180Z,0
2017-07-08T01:12:15.072Z,0
2017-07-08T01:13:16.971Z,0
2017-07-08T01:14:31.141Z,0
2017-07-08T01:15:33.009Z,0
2017-07-08T01:16:34.886Z,0
2017-07-08T01:17:36.783Z,0
2017-07-08T01:18:38.616Z,0
2017-07-08T01:19:40.450Z,0
2017-07-08T01:20:42.321Z,0
2017-07-08T01:21:44.196Z,0
2017-07-08T01:22:46.097Z,0
2017-07-08T01:24:00.257Z,0
2017-07-08T01:25:02.138Z,0
2017-07-08T01:26:04.030Z,0
2017-07-08T01:27:05.904Z,0
2017-07-08T01:28:07.715Z,0
2017-07-08T01:29:09.519Z,0
2017-07-08T01:30:11.384Z,0
2017-07-08T01:31:13.261Z,0
2017-07-08T01:32:15.158Z,0
2017-07-08T01:33:29.297Z,0
2017-07-08T01:34:31.192Z,0
2017-07-08T01:35:33.069Z,0
2017-07-08T01:36:34.944Z,0
2017-07-08T01:37:36.778Z,0
2017-07-08T01:38:38.591Z,0
2017-07-08T01:39:40.483Z,0
2017-07-08T01:40:42.380Z,0
2017-07-08T01:41:44.282Z,0
2017-07-08T01:42:58.446Z,0
2017-07-08T01:44:00.320Z,0
2017-07-08T01:45:02.216Z,0
2017-07-08T01:46:04.121Z,0
2017-07-08T01:47:05.957Z,0
2017-07-08T01:48:07.789Z,0
2017-07-08T01:49:09.689Z,0
2017-07-08T01:50:11.586Z,0
2017-07-08T01:51:13.463Z,0
2017-07-08T01:52:27.628Z,0
2017-07-08T01:53:29.527Z,0
2017-07-08T01:54:31.424Z,0
2017-07-08T01:55:33.322Z,0
2017-07-08T01:56:35.162Z,0
2017-07-08T01:57:36.986Z,0
2017-07-08T01:58:38.873Z,0
2017-07-08T01:59:40.746Z,0
2017-07-08T02:00:42.618Z,0
2017-07-08T02:01:56.762Z,0
2017-07-08T02:02:58.632Z,0
2017-07-08T02:04:00.510Z,0
2017-07-08T02:05:02.408Z,0
2017-07-08T02:06:04.240Z,0
2017-07-08T02:07:06.050Z,0
2017-07-08T02:08:07.942Z,0
2017-07-08T02:09:09.817Z,0
2017-07-08T02:10:11.690Z,0
2017-07-08T02:11:25.832Z,0
2017-07-08T02:12:27.701Z,0
2017-07-08T02:13:29.576Z,0
2017-07-08T02:14:31.475Z,0
2017-07-08T02:15:33.286Z,0
2017-07-08T02:16:35.095Z,0
2017-07-08T02:17:36.965Z,0
2017-07-08T02:18:38.866Z,0
2017-07-08T02:19:40.732Z,0
2017-07-08T02:20:54.914Z,0
2017-07-08T02:21:56.788Z,0
2017-07-08T02:22:58.657Z,0
2017-07-08T02:24:00.538Z,0
2017-07-08T02:25:02.348Z,0
2017-07-08T02:26:04.184Z,0
2017-07-08T02:27:06.062Z,0
2017-07-08T02:28:07.955Z,0
2017-07-08T02:29:09.850Z,0
2017-07-08T02:30:24.001Z,0
2017-07-08T02:31:25.901Z,0
2017-07-08T02:32:27.797Z,0
2017-07-08T02:33:29.677Z,0
2017-07-08T02:34:31.510Z,0
2017-07-08T02:35:33.317Z,0
2017-07-08T02:36:35.194Z,0
2017-07-08T02:37:37.090Z,0
2017-07-08T02:38:38.966Z,0
2017-07-08T02:39:53.186Z,0
2017-07-08T02:40:55.084Z,0
2017-07-08T02:41:56.982Z,0
2017-07-08T02:42:58.860Z,0
2017-07-08T02:44:00.673Z,0
2017-07-08T02:45:02.503Z,0
2017-07-08T02:46:04.377Z,0
2017-07-08T02:47:06.247Z,5
2017-07-08T02:48:08.122Z,5
2017-07-08T02:49:22.292Z,5
2017-07-08T02:50:24.182Z,5
2017-07-08T02:51:26.062Z,5
2017-07-08T02:52:27.942Z,5
2017-07-08T02:53:29.779Z,5
2017-07-08T02:54:31.589Z,5
2017-07-08T02:55:33.480Z,10
2017-07-08T02:56:35.358Z,10
2017-07-08T02:57:37.257Z,10
2017-07-08T02:58:51.423Z,10
2017-07-08T02:59:53.297Z,10
2017-07-08T03:00:55.175Z,15
2017-07-08T03:01:57.079Z,15
2017-07-08T03:02:58.916Z,15
2017-07-08T03:04:00.753Z,15
2017-07-08T03:05:02.653Z,20
2017-07-08T03:06:04.548Z,20
2017-07-08T03:07:06.424Z,20
2017-07-08T03:08:20.572Z,25
2017-07-08T03:09:22.449Z,25
2017-07-08T03:10:24.350Z,25
2017-07-08T03:11:26.225Z,30
2017-07-08T03:12:28.035Z,30
2017-07-08T03:13:29.847Z,30
2017-07-08T03:14:31.725Z,30
2017-07-08T03:15:33.619Z,30
2017-07-08T03:16:35.479Z,35
2017-07-08T03:17:49.625Z,35
2017-07-08T03:18:51.495Z,35
2017-07-08T03:19:53.373Z,40
2017-07-08T03:20:55.278Z,40
2017-07-08T03:21:57.117Z,40
2017-07-08T03:22:58.926Z,45
2017-07-08T03:24:00.826Z,45
2017-07-08T03:25:02.724Z,50
2017-07-08T03:26:04.631Z,50
2017-07-08T03:27:18.799Z,55
2017-07-08T03:28:20.700Z,55
2017-07-08T03:29:22.604Z,55
2017-07-08T03:30:24.508Z,55
2017-07-08T03:31:26.345Z,60
2017-07-08T03:32:28.181Z,60
2017-07-08T03:33:30.081Z,60
2017-07-08T03:34:31.957Z,65
2017-07-08T03:35:33.852Z,70
2017-07-08T03:36:48.006Z,75
2017-07-08T03:37:49.880Z,80
2017-07-08T03:38:51.758Z,85
2017-07-08T03:39:53.632Z,85
2017-07-08T03:40:55.446Z,95
2017-07-08T03:41:57.263Z,100
2017-07-08T03:42:59.139Z,105
2017-07-08T03:44:01.039Z,110
2017-07-08T03:45:02.917Z,115
2017-07-08T03:46:17.094Z,120
2017-07-08T03:47:18.968Z,125
2017-07-08T03:48:20.873Z,130
2017-07-08T03:49:22.782Z,135
2017-07-08T03:50:24.621Z,145
2017-07-08T03:51:26.457Z,155
2017-07-08T03:52:28.339Z,160
2017-07-08T03:53:30.220Z,165
2017-07-08T03:54:32.116Z,175
2017-07-08T03:55:46.269Z,180
2017-07-08T03:56:48.174Z,185
2017-07-08T03:57:50.072Z,190
2017-07-08T03:58:51.955Z,195
2017-07-08T03:59:53.770Z,195
2017-07-08T04:00:55.578Z,200
2017-07-08T04:01:57.459Z,210
2017-07-08T04:02:59.336Z,215
2017-07-08T04:04:01.209Z,225
2017-07-08T04:05:15.409Z,235
2017-07-08T04:06:17.285Z,245
2017-07-08T04:07:19.189Z,255
2017-07-08T04:08:21.091Z,255
2017-07-08T04:09:22.911Z,260
2017-07-08T04:10:24.744Z,290
2017-07-08T04:11:26.625Z,300
2017-07-08T04:12:28.509Z,285
2017-07-08T04:13:30.409Z,300
2017-07-08T04:14:44.586Z,310
2017-07-08T04:15:46.462Z,325
2017-07-08T04:16:48.368Z,335
2017-07-08T04:17:50.276Z,350
2017-07-08T04:18:52.122Z,360
2017-07-08T04:19:53.959Z,355
2017-07-08T04:20:55.860Z,350
2017-07-08T04:21:57.764Z,345
2017-07-08T04:22:59.642Z,340
2017-07-08T04:24:13.819Z,285
2017-07-08T04:25:15.699Z,255
2017-07-08T04:26:17.575Z,270
2017-07-08T04:27:19.461Z,315
2017-07-08T04:28:21.277Z,340
2017-07-08T04:29:23.097Z,350
2017-07-08T04:30:24.997Z,385
2017-07-08T04:31:26.904Z,395
2017-07-08T04:32:28.802Z,355
2017-07-08T04:33:42.955Z,380
2017-07-08T04:34:44.832Z,415
2017-07-08T04:35:46.715Z,450
2017-07-08T04:36:48.594Z,480
2017-07-08T04:37:50.442Z,515
2017-07-08T04:38:52.282Z,520
2017-07-08T04:39:54.188Z,530
2017-07-08T04:40:56.070Z,525
2017-07-08T04:41:57.971Z,485
2017-07-08T04:43:12.156Z,525
2017-07-08T04:44:13.976Z,585
2017-07-08T04:45:15.819Z,585
2017-07-08T04:46:17.637Z,595
2017-07-08T04:47:19.481Z,590
2017-07-08T04:48:21.384Z,590
2017-07-08T04:49:23.263Z,550
2017-07-08T04:50:25.122Z,470
2017-07-08T04:51:26.969Z,535
2017-07-08T04:52:41.153Z,525
2017-07-08T04:53:43.035Z,525
2017-07-08T04:54:44.918Z,525
2017-07-08T04:55:46.827Z,585
2017-07-08T04:56:48.672Z,650
2017-07-08T04:57:50.485Z,650
2017-07-08T04:58:52.370Z,620
2017-07-08T04:59:54.273Z,630
2017-07-08T05:00:56.160Z,650
2017-07-08T05:02:10.312Z,675
2017-07-08T05:03:12.191Z,650
2017-07-08T05:04:14.100Z,600
2017-07-08T05:05:15.985Z,640
2017-07-08T05:06:17.825Z,690
2017-07-08T05:07:19.639Z,685
2017-07-08T05:08:21.524Z,680
2017-07-08T05:09:23.433Z,650
2017-07-08T05:10:25.352Z,665
2017-07-08T05:11:39.582Z,680
2017-07-08T05:12:41.417Z,605
2017-07-08T05:13:43.320Z,525
2017-07-08T05:14:45.206Z,510
2017-07-08T05:15:47.027Z,510
2017-07-08T05:16:48.863Z,500
2017-07-08T05:17:50.746Z,505
2017-07-08T05:18:52.652Z,505
2017-07-08T05:19:54.563Z,520
2017-07-08T05:21:08.737Z,530
2017-07-08T05:22:10.644Z,545
2017-07-08T05:23:12.523Z,555
2017-07-08T05:24:14.405Z,550
2017-07-08T05:25:16.232Z,565
2017-07-08T05:26:18.064Z,565
2017-07-08T05:27:19.949Z,545
2017-07-08T05:28:21.828Z,560
2017-07-08T05:29:23.713Z,550
2017-07-08T05:30:37.892Z,565
2017-07-08T05:31:39.768Z,585
2017-07-08T05:32:41.651Z,570
2017-07-08T05:33:43.559Z,520
2017-07-08T05:34:45.382Z,490
2017-07-08T05:35:47.198Z,490
2017-07-08T05:36:49.099Z,500
2017-07-08T05:37:50.986Z,505
2017-07-08T05:38:52.892Z,520
2017-07-08T05:40:07.071Z,530
2017-07-08T05:41:08.947Z,530
2017-07-08T05:42:10.830Z,530
2017-07-08T05:43:12.763Z,520
2017-07-08T05:44:14.533Z,520
2017-07-08T05:45:16.352Z,510
2017-07-08T05:46:18.255Z,505
2017-07-08T05:47:20.136Z,495
2017-07-08T05:48:22.018Z,500
2017-07-08T05:49:36.188Z,505
2017-07-08T05:50:38.071Z,530
2017-07-08T05:51:39.982Z,545
2017-07-08T05:52:41.890Z,575
2017-07-08T05:53:43.734Z,605
2017-07-08T05:54:45.556Z,610
2017-07-08T05:55:47.453Z,575
2017-07-08T05:56:49.328Z,545
2017-07-08T05:57:51.218Z,545
2017-07-08T05:59:05.360Z,570
2017-07-08T06:00:07.239Z,595
2017-07-08T06:01:09.119Z,635
2017-07-08T06:02:11.012Z,680
2017-07-08T06:03:12.860Z,675
2017-07-08T06:04:14.696Z,705
2017-07-08T06:05:16.592Z,720
2017-07-08T06:06:18.485Z,765
2017-07-08T06:07:20.387Z,780
2017-07-08T06:08:34.542Z,655
2017-07-08T06:09:36.442Z,660
2017-07-08T06:10:38.328Z,630
2017-07-08T06:11:40.243Z,595
2017-07-08T06:12:42.067Z,520
2017-07-08T06:13:43.883Z,495
2017-07-08T06:14:45.758Z,505
2017-07-08T06:15:47.639Z,510
2017-07-08T06:16:49.523Z,525
2017-07-08T06:18:03.679Z,540
2017-07-08T06:19:05.588Z,565
2017-07-08T06:20:07.497Z,590
2017-07-08T06:21:09.399Z,600
2017-07-08T06:22:11.223Z,595
2017-07-08T06:23:13.040Z,610
2017-07-08T06:24:14.947Z,650
2017-07-08T06:25:16.826Z,700
2017-07-08T06:26:18.709Z,735
2017-07-08T06:27:32.868Z,740
2017-07-08T06:28:34.776Z,745
2017-07-08T06:29:36.656Z,755
2017-07-08T06:30:38.540Z,805
2017-07-08T06:31:40.363Z,870
2017-07-08T06:32:42.205Z,885
2017-07-08T06:33:44.083Z,820
2017-07-08T06:34:45.970Z,740
2017-07-08T06:35:47.873Z,690
2017-07-08T06:37:02.029Z,660
2017-07-08T06:38:03.935Z,635
2017-07-08T06:39:05.818Z,605
2017-07-08T06:40:07.729Z,580
2017-07-08T06:41:09.572Z,560
2017-07-08T06:42:11.387Z,555
2017-07-08T06:43:13.272Z,555
2017-07-08T06:44:15.182Z,565
2017-07-08T06:45:17.066Z,575
2017-07-08T06:46:31.245Z,595
2017-07-08T06:47:33.123Z,605
2017-07-08T06:48:35.032Z,610
2017-07-08T06:49:36.937Z,615
2017-07-08T06:50:38.762Z,610
2017-07-08T06:51:40.600Z,610
2017-07-08T06:52:42.542Z,620
2017-07-08T06:53:44.358Z,630
2017-07-08T06:54:46.244Z,640
2017-07-08T06:56:00.395Z,650
2017-07-08T06:57:02.297Z,655
2017-07-08T06:58:04.181Z,675
2017-07-08T06:59:06.066Z,695
2017-07-08T07:00:07.910Z,715
2017-07-08T07:01:09.754Z,720
2017-07-08T07:02:11.656Z,690
2017-07-08T07:03:13.545Z,670
2017-07-08T07:04:15.452Z,650
2017-07-08T07:05:29.612Z,635
2017-07-08T07:06:31.515Z,625
2017-07-08T07:07:33.395Z,615
2017-07-08T07:08:35.285Z,610
2017-07-08T07:09:37.131Z,605
2017-07-08T07:10:38.973Z,605
2017-07-08T07:11:40.858Z,610
2017-07-08T07:12:42.759Z,605
2017-07-08T07:13:44.647Z,600
2017-07-08T07:14:58.824Z,585
2017-07-08T07:16:00.731Z,585
2017-07-08T07:17:02.615Z,575
2017-07-08T07:18:04.524Z,570
2017-07-08T07:19:06.344Z,585
2017-07-08T07:20:08.158Z,610
2017-07-08T07:21:10.135Z,635
2017-07-08T07:22:12.045Z,655
2017-07-08T07:23:13.954Z,665
2017-07-08T07:24:28.106Z,685
2017-07-08T07:25:29.980Z,685
2017-07-08T07:26:31.868Z,690
2017-07-08T07:27:33.774Z,695
2017-07-08T07:28:35.658Z,695
2017-07-08T07:29:37.679Z,680
2017-07-08T07:30:39.585Z,685
2017-07-08T07:31:41.426Z,685
2017-07-08T07:32:43.951Z,685
2017-07-08T07:33:58.213Z,685
2017-07-08T07:35:00.121Z,690
2017-07-08T07:36:02.030Z,700
2017-07-08T07:37:03.938Z,710
2017-07-08T07:38:05.763Z,720
2017-07-08T07:39:07.600Z,730
2017-07-08T07:40:09.482Z,735
2017-07-08T07:41:11.366Z,740
2017-07-08T07:42:13.271Z,755
2017-07-08T07:43:27.477Z,775
2017-07-08T07:44:29.359Z,785
2017-07-08T07:45:31.270Z,805
2017-07-08T07:46:33.171Z,815
2017-07-08T07:47:34.993Z,830
2017-07-08T07:48:36.806Z,840
2017-07-08T07:49:38.690Z,835
2017-07-08T07:50:40.568Z,810
2017-07-08T07:51:42.455Z,800
2017-07-08T07:52:56.608Z,790
2017-07-08T07:53:58.489Z,800
2017-07-08T07:55:00.408Z,810
2017-07-08T07:56:02.313Z,825
2017-07-08T07:57:04.158Z,835
2017-07-08T07:58:05.976Z,840
2017-07-08T07:59:07.864Z,830
2017-07-08T08:00:09.776Z,805
2017-07-08T08:01:11.683Z,785
2017-07-08T08:02:25.837Z,765
2017-07-08T08:03:27.722Z,745
2017-07-08T08:04:29.630Z,740
2017-07-08T08:05:31.548Z,730
2017-07-08T08:06:33.393Z,725
2017-07-08T08:07:35.234Z,720
2017-07-08T08:08:37.119Z,710
2017-07-08T08:09:39.026Z,720
2017-07-08T08:10:40.900Z,715
2017-07-08T08:11:55.148Z,715
2017-07-08T08:12:57.077Z,720
2017-07-08T08:13:59.058Z,730
2017-07-08T08:15:01.072Z,735
2017-07-08T08:16:03.044Z,735
2017-07-08T08:17:04.987Z,730
2017-07-08T08:18:06.973Z,705
2017-07-08T08:19:08.854Z,685
2017-07-08T08:20:10.768Z,665
2017-07-08T08:21:24.945Z,645
2017-07-08T08:22:26.832Z,625
2017-07-08T08:23:28.714Z,625
2017-07-08T08:24:30.663Z,605
2017-07-08T08:25:32.505Z,620
2017-07-08T08:26:34.815Z,615
2017-07-08T08:27:36.771Z,630
2017-07-08T08:28:38.745Z,625
2017-07-08T08:29:40.634Z,575
2017-07-08T08:30:54.812Z,530
2017-07-08T08:31:56.692Z,535
2017-07-08T08:32:58.649Z,550
2017-07-08T08:34:00.641Z,590
2017-07-08T08:35:02.484Z,650
2017-07-08T08:36:04.301Z,725
2017-07-08T08:37:06.189Z,785
2017-07-08T08:38:08.163Z,820
2017-07-08T08:39:10.089Z,815
2017-07-08T08:40:24.264Z,795
2017-07-08T08:41:26.176Z,785
2017-07-08T08:42:28.187Z,780
2017-07-08T08:43:30.067Z,770
2017-07-08T08:44:31.888Z,770
2017-07-08T08:45:33.724Z,740
2017-07-08T08:46:35.659Z,720
2017-07-08T08:47:37.588Z,700
2017-07-08T08:48:39.635Z,655
2017-07-08T08:49:53.822Z,680
2017-07-08T08:50:55.726Z,670
2017-07-08T08:51:57.730Z,705
2017-07-08T08:52:59.630Z,730
2017-07-08T08:54:01.465Z,690
2017-07-08T08:55:03.284Z,690
2017-07-08T08:56:05.234Z,710
2017-07-08T08:57:07.197Z,690
2017-07-08T08:58:09.146Z,675
2017-07-08T08:59:23.313Z,655
2017-07-08T09:00:25.197Z,650
2017-07-08T09:01:27.141Z,680
2017-07-08T09:02:29.022Z,710
2017-07-08T09:03:30.872Z,680
2017-07-08T09:04:32.690Z,655
2017-07-08T09:05:34.729Z,680
2017-07-08T09:06:36.709Z,700
2017-07-08T09:07:38.704Z,705
2017-07-08T09:08:52.864Z,760
2017-07-08T09:09:54.774Z,770
2017-07-08T09:10:56.684Z,740
2017-07-08T09:11:58.666Z,715
2017-07-08T09:13:00.582Z,730
2017-07-08T09:14:02.402Z,760
2017-07-08T09:15:04.288Z,800
2017-07-08T09:16:06.190Z,835
2017-07-08T09:17:08.095Z,850
2017-07-08T09:18:22.277Z,795
2017-07-08T09:19:24.184Z,775
2017-07-08T09:20:26.092Z,775
2017-07-08T09:21:27.994Z,785
2017-07-08T09:22:29.844Z,825
2017-07-08T09:23:31.689Z,825
2017-07-08T09:24:33.569Z,820
2017-07-08T09:25:35.473Z,785
2017-07-08T09:26:37.381Z,780
2017-07-08T09:27:51.535Z,805
2017-07-08T09:28:53.424Z,780
2017-07-08T09:29:55.399Z,775
2017-07-08T09:30:57.459Z,750
2017-07-08T09:31:59.397Z,735
2017-07-08T09:33:01.235Z,735
2017-07-08T09:34:03.118Z,725
2017-07-08T09:35:04.997Z,725
2017-07-08T09:36:06.933Z,740
2017-07-08T09:37:21.255Z,790
2017-07-08T09:38:23.304Z,825
2017-07-08T09:39:25.278Z,810
2017-07-08T09:40:27.204Z,830
2017-07-08T09:41:29.026Z,835
2017-07-08T09:42:30.916Z,800
2017-07-08T09:43:32.964Z,790
2017-07-08T09:44:35.005Z,805
2017-07-08T09:45:37.011Z,805
2017-07-08T09:46:51.319Z,815
2017-07-08T09:47:53.352Z,830
2017-07-08T09:48:55.376Z,825
2017-07-08T09:49:57.333Z,825
2017-07-08T09:50:59.321Z,860
2017-07-08T09:52:01.361Z,865
2017-07-08T09:53:03.251Z,865
2017-07-08T09:54:05.159Z,855
2017-07-08T09:55:07.075Z,835
2017-07-08T09:56:21.224Z,825
2017-07-08T09:57:23.105Z,825
2017-07-08T09:58:25.067Z,835
2017-07-08T09:59:26.918Z,835
2017-07-08T10:00:28.765Z,840
2017-07-08T10:01:30.613Z,830
2017-07-08T10:02:32.523Z,835
2017-07-08T10:03:34.429Z,845
2017-07-08T10:04:36.333Z,840
2017-07-08T10:05:50.509Z,845
2017-07-08T10:06:52.416Z,850
2017-07-08T10:07:54.328Z,865
2017-07-08T10:08:56.303Z,875
2017-07-08T10:09:58.138Z,875
2017-07-08T10:11:00.021Z,890
2017-07-08T10:12:01.907Z,920
2017-07-08T10:13:03.788Z,950
2017-07-08T10:14:05.671Z,950
2017-07-08T10:15:19.832Z,870
2017-07-08T10:16:21.740Z,795
2017-07-08T10:17:23.646Z,720
2017-07-08T10:18:25.548Z,685
2017-07-08T10:19:27.399Z,675
2017-07-08T10:20:29.222Z,675
2017-07-08T10:21:31.127Z,680
2017-07-08T10:22:33.017Z,705
2017-07-08T10:23:34.931Z,750
2017-07-08T10:24:49.109Z,795
2017-07-08T10:25:50.994Z,800
2017-07-08T10:26:52.903Z,795
2017-07-08T10:27:54.811Z,790
2017-07-08T10:28:56.634Z,805
2017-07-08T10:29:58.457Z,830
2017-07-08T10:31:00.362Z,835
2017-07-08T10:32:02.270Z,810
2017-07-08T10:33:04.175Z,785
2017-07-08T10:34:18.336Z,750
2017-07-08T10:35:20.249Z,745
2017-07-08T10:36:22.137Z,765
2017-07-08T10:37:24.048Z,785
2017-07-08T10:38:25.894Z,830
2017-07-08T10:39:27.714Z,870
2017-07-08T10:40:29.618Z,890
2017-07-08T10:41:31.501Z,890
2017-07-08T10:42:33.388Z,890
2017-07-08T10:43:47.541Z,870
2017-07-08T10:44:49.424Z,865
2017-07-08T10:45:51.308Z,885
2017-07-08T10:46:53.185Z,925
2017-07-08T10:47:55.012Z,955
2017-07-08T10:48:56.834Z,980
2017-07-08T10:49:58.736Z,980
2017-07-08T10:51:00.623Z,1000
2017-07-08T10:52:02.531Z,1030
2017-07-08T10:53:16.713Z,1050
2017-07-08T10:54:18.627Z,1035
2017-07-08T10:55:20.537Z,955
2017-07-08T10:56:22.450Z,950
2017-07-08T10:57:24.295Z,960
2017-07-08T10:58:26.115Z,970
2017-07-08T10:59:28.000Z,995
2017-07-08T11:00:29.877Z,1005
2017-07-08T11:01:31.760Z,965
2017-07-08T11:02:45.918Z,930
2017-07-08T11:03:47.805Z,925
2017-07-08T11:04:49.710Z,900
2017-07-08T11:05:51.598Z,895
2017-07-08T11:06:53.417Z,875
2017-07-08T11:07:55.242Z,870
2017-07-08T11:08:57.145Z,845
2017-07-08T11:09:59.048Z,830
2017-07-08T11:11:00.937Z,835
2017-07-08T11:12:15.138Z,860
2017-07-08T11:13:17.001Z,880
2017-07-08T11:14:18.886Z,890
2017-07-08T11:15:20.774Z,890
2017-07-08T11:16:22.621Z,890
2017-07-08T11:17:24.462Z,885
2017-07-08T11:18:26.349Z,865
2017-07-08T11:19:28.233Z,865
2017-07-08T11:20:30.137Z,825
2017-07-08T11:21:44.303Z,725
2017-07-08T11:22:46.205Z,665
2017-07-08T11:23:48.140Z,645
2017-07-08T11:24:49.998Z,620
2017-07-08T11:25:51.849Z,620
2017-07-08T11:26:53.911Z,565
2017-07-08T11:27:55.825Z,560
2017-07-08T11:28:57.712Z,595
2017-07-08T11:29:59.624Z,625
2017-07-08T11:31:13.875Z,670
2017-07-08T11:32:15.750Z,700
2017-07-08T11:33:17.659Z,695
2017-07-08T11:34:19.590Z,690
2017-07-08T11:35:21.434Z,725
2017-07-08T11:36:23.276Z,770
2017-07-08T11:37:25.151Z,810
2017-07-08T11:38:27.038Z,870
2017-07-08T11:39:28.943Z,910
2017-07-08T11:40:43.128Z,945
2017-07-08T11:41:45.010Z,975
2017-07-08T11:42:46.924Z,990
2017-07-08T11:43:48.809Z,970
2017-07-08T11:44:50.647Z,940
2017-07-08T11:45:52.493Z,885
2017-07-08T11:46:54.399Z,865
2017-07-08T11:47:56.398Z,870
2017-07-08T11:48:58.325Z,860
2017-07-08T11:50:12.590Z,855
2017-07-08T11:51:14.498Z,810
2017-07-08T11:52:16.403Z,760
2017-07-08T11:53:18.285Z,715
2017-07-08T11:54:20.104Z,680
2017-07-08T11:55:21.927Z,670
2017-07-08T11:56:23.832Z,665
2017-07-08T11:57:25.722Z,655
2017-07-08T11:58:27.626Z,670
2017-07-08T11:59:41.790Z,695
2017-07-08T12:00:43.698Z,720
2017-07-08T12:01:45.579Z,735
2017-07-08T12:02:47.466Z,735
2017-07-08T12:03:49.288Z,715
2017-07-08T12:04:51.109Z,705
2017-07-08T12:05:53.018Z,715
2017-07-08T12:06:54.922Z,700
2017-07-08T12:07:56.807Z,670
2017-07-08T12:09:10.989Z,655
2017-07-08T12:10:12.903Z,655
2017-07-08T12:11:14.811Z,640
2017-07-08T12:12:16.729Z,630
2017-07-08T12:13:18.575Z,625
2017-07-08T12:14:20.398Z,650
2017-07-08T12:15:22.307Z,685
2017-07-08T12:16:24.213Z,735
2017-07-08T12:17:26.102Z,760
2017-07-08T12:18:40.487Z,730
2017-07-08T12:19:42.377Z,695
2017-07-08T12:20:44.288Z,680
2017-07-08T12:21:46.173Z,650
2017-07-08T12:22:47.998Z,635
2017-07-08T12:23:49.815Z,580
2017-07-08T12:24:51.695Z,560
2017-07-08T12:25:53.581Z,520
2017-07-08T12:26:55.488Z,510
2017-07-08T12:28:09.650Z,480
2017-07-08T12:29:11.528Z,435
2017-07-08T12:30:13.440Z,390
2017-07-08T12:31:15.346Z,345
2017-07-08T12:32:17.443Z,315
2017-07-08T12:33:19.356Z,295
2017-07-08T12:34:21.264Z,280
2017-07-08T12:35:23.166Z,265
2017-07-08T12:36:25.076Z,260
2017-07-08T12:37:39.262Z,270
2017-07-08T12:38:41.162Z,280
2017-07-08T12:39:43.046Z,295
2017-07-08T12:40:44.962Z,315
2017-07-08T12:41:46.800Z,355
2017-07-08T12:42:48.612Z,420
2017-07-08T12:43:50.489Z,490
2017-07-08T12:44:52.377Z,570
2017-07-08T12:45:54.284Z,630
2017-07-08T12:47:08.439Z,710
2017-07-08T12:48:10.320Z,735
2017-07-08T12:49:12.207Z,740
2017-07-08T12:50:14.114Z,735
2017-07-08T12:51:15.932Z,725
2017-07-08T12:52:17.754Z,700
2017-07-08T12:53:19.673Z,695
2017-07-08T12:54:21.555Z,690
2017-07-08T12:55:23.441Z,675
2017-07-08T12:56:37.596Z,680
2017-07-08T12:57:39.508Z,700
2017-07-08T12:58:41.422Z,705
2017-07-08T12:59:43.303Z,715
2017-07-08T13:00:45.151Z,720
2017-07-08T13:01:46.995Z,720
2017-07-08T13:02:48.905Z,690
2017-07-08T13:03:50.813Z,635
2017-07-08T13:04:52.696Z,595
2017-07-08T13:06:06.852Z,565
2017-07-08T13:07:08.733Z,575
2017-07-08T13:08:10.642Z,555
2017-07-08T13:09:12.529Z,565
2017-07-08T13:10:14.373Z,590
2017-07-08T13:11:16.236Z,585
2017-07-08T13:12:18.142Z,580
2017-07-08T13:13:20.047Z,585
2017-07-08T13:14:21.931Z,600
2017-07-08T13:15:36.115Z,635
2017-07-08T13:16:38.026Z,665
2017-07-08T13:17:39.907Z,715
2017-07-08T13:18:41.797Z,765
2017-07-08T13:19:43.653Z,765
2017-07-08T13:20:45.475Z,760
2017-07-08T13:21:47.381Z,810
2017-07-08T13:22:49.267Z,830
2017-07-08T13:23:51.177Z,855
2017-07-08T13:25:05.356Z,875
2017-07-08T13:26:07.270Z,895
2017-07-08T13:27:09.183Z,875
2017-07-08T13:28:11.099Z,875
2017-07-08T13:29:12.948Z,850
2017-07-08T13:30:14.769Z,800
2017-07-08T13:31:16.650Z,755
2017-07-08T13:32:18.553Z,725
2017-07-08T13:33:20.465Z,730
2017-07-08T13:34:34.682Z,770
2017-07-08T13:35:36.733Z,790
2017-07-08T13:36:38.723Z,810
2017-07-08T13:37:40.670Z,830
2017-07-08T13:38:42.796Z,845
2017-07-08T13:39:44.929Z,850
2017-07-08T13:40:46.857Z,845
2017-07-08T13:41:49.024Z,825
2017-07-08T13:42:50.920Z,800
2017-07-08T13:44:05.331Z,770
2017-07-08T13:45:07.305Z,765
2017-07-08T13:46:09.324Z,755
2017-07-08T13:47:11.344Z,740
2017-07-08T13:48:13.304Z,715
2017-07-08T13:49:15.251Z,705
2017-07-08T13:50:17.267Z,695
2017-07-08T13:51:19.275Z,720
2017-07-08T13:52:21.280Z,755
2017-07-08T13:53:35.523Z,765
2017-07-08T13:54:37.594Z,755
2017-07-08T13:55:39.494Z,720
2017-07-08T13:56:41.426Z,715
2017-07-08T13:57:43.312Z,730
2017-07-08T13:58:45.129Z,750
2017-07-08T13:59:47.089Z,755
2017-07-08T14:00:49.039Z,735
2017-07-08T14:01:51.089Z,705
2017-07-08T14:03:05.335Z,660
2017-07-08T14:04:07.279Z,655
2017-07-08T14:05:09.167Z,640
2017-07-08T14:06:11.161Z,630
2017-07-08T14:07:13.023Z,620
2017-07-08T14:08:14.842Z,600
2017-07-08T14:09:16.763Z,590
2017-07-08T14:10:19.370Z,590
2017-07-08T14:11:21.499Z,585
2017-07-08T14:12:35.750Z,575
2017-07-08T14:13:37.654Z,595
2017-07-08T14:14:39.615Z,665
2017-07-08T14:15:41.623Z,730
2017-07-08T14:16:43.581Z,740
2017-07-08T14:17:45.481Z,715
2017-07-08T14:18:47.387Z,620
2017-07-08T14:19:49.460Z,590
2017-07-08T14:20:51.604Z,600
2017-07-08T14:22:05.973Z,595
2017-07-08T14:23:07.959Z,580
2017-07-08T14:24:09.898Z,570
2017-07-08T14:25:11.916Z,585
2017-07-08T14:26:13.733Z,605
2017-07-08T14:27:15.556Z,620
2017-07-08T14:28:17.457Z,605
2017-07-08T14:29:19.343Z,590
2017-07-08T14:30:21.249Z,570
2017-07-08T14:31:35.448Z,535
2017-07-08T14:32:37.353Z,495
2017-07-08T14:33:39.258Z,485
2017-07-08T14:34:41.163Z,480
2017-07-08T14:35:42.987Z,470
2017-07-08T14:36:44.828Z,460
2017-07-08T14:37:46.719Z,470
2017-07-08T14:38:48.621Z,480
2017-07-08T14:39:50.522Z,485
2017-07-08T14:41:04.676Z,485
2017-07-08T14:42:06.566Z,470
2017-07-08T14:43:08.470Z,470
2017-07-08T14:44:10.373Z,495